Time,TemperatureF,DewpointF,PressureIn,WindDirection,WindDirectionDegrees,WindSpeedMPH,WindSpeedGustMPH,Humidity,HourlyPrecipIn,Conditions,Clouds,dailyrainin,SolarRadiationWatts/m^2,SoftwareType,DateUTC
2013-06-17 01:00:00,56.0,52.0,-100.00,ESE,116,1.0,3.0,86,-99.99,,,0.00,0.120000,,2013-06-17 08:00:00,
2013-06-17 01:43:00,56.0,52.0,-100.00,ESE,116,1.0,3.0,86,-99.99,,,0.00,0.120000,,2013-06-17 08:43:00,
2013-06-17 01:53:00,56.0,52.0,-100.00,ESE,116,1.0,3.0,86,-99.99,,,0.00,0.120000,,2013-06-17 08:53:00,
2013-06-17 02:00:00,62.0,55.0,-100.00,NNW,339,2.0,10.0,77,-99.99,,,0.00,0.120000,,2013-06-17 09:00:00,
2013-06-17 02:43:00,62.0,55.0,-100.00,NNW,339,2.0,10.0,77,-99.99,,,0.00,0.120000,,2013-06-17 09:43:00,
2013-06-17 02:53:00,62.0,55.0,-100.00,NNW,339,2.0,10.0,77,-99.99,,,0.00,0.120000,,2013-06-17 09:53:00,
2013-06-17 03:00:00,58.0,52.0,-100.00,NE,40,2.0,3.0,80,-99.99,,,0.00,0.120000,,2013-06-17 10:00:00,
2013-06-17 03:43:00,58.0,52.0,-100.00,NE,40,2.0,3.0,80,-99.99,,,0.00,0.120000,,2013-06-17 10:43:00,
2013-06-17 03:53:00,58.0,52.0,-100.00,NE,40,2.0,3.0,80,-99.99,,,0.00,0.120000,,2013-06-17 10:53:00,
2013-06-17 04:00:00,59.0,53.0,-100.00,NNE,17,1.0,4.0,79,-99.99,,,0.00,0.120000,,2013-06-17 11:00:00,
2013-06-17 04:43:00,59.0,53.0,-100.00,NNE,17,1.0,4.0,79,-99.99,,,0.00,0.120000,,2013-06-17 11:43:00,
2013-06-17 04:53:00,59.0,53.0,-100.00,NNE,17,1.0,4.0,79,-99.99,,,0.00,0.120000,,2013-06-17 11:53:00,
2013-06-17 05:00:00,59.0,53.0,-100.00,North,359,3.0,7.0,78,-99.99,,,0.00,0.230000,,2013-06-17 12:00:00,
2013-06-17 05:43:00,59.0,53.0,-100.00,North,359,3.0,7.0,78,-99.99,,,0.00,0.230000,,2013-06-17 12:43:00,
2013-06-17 05:53:00,59.0,53.0,-100.00,North,359,3.0,7.0,78,-99.99,,,0.00,0.230000,,2013-06-17 12:53:00,
2013-06-17 06:00:00,59.0,53.0,-100.00,NE,45,3.0,4.0,79,-99.99,,,0.00,31.030001,,2013-06-17 13:00:00,
2013-06-17 06:43:00,59.0,53.0,-100.00,NE,45,3.0,4.0,79,-99.99,,,0.00,31.030001,,2013-06-17 13:43:00,
2013-06-17 06:52:00,59.0,53.0,-100.00,NE,45,3.0,4.0,79,-99.99,,,0.00,31.030001,,2013-06-17 13:52:00,
2013-06-17 07:00:00,60.0,53.0,-100.00,North,4,3.0,5.0,77,-99.99,,,0.00,125.980003,,2013-06-17 14:00:00,
2013-06-17 07:43:00,60.0,53.0,-100.00,North,4,3.0,5.0,77,-99.99,,,0.00,125.980003,,2013-06-17 14:43:00,
2013-06-17 07:53:00,60.0,53.0,-100.00,North,4,3.0,5.0,77,-99.99,,,0.00,125.980003,,2013-06-17 14:53:00,
2013-06-17 08:00:00,64.0,54.0,-100.00,NE,37,2.0,5.0,70,-99.99,,,0.00,304.149994,,2013-06-17 15:00:00,
2013-06-17 08:43:00,64.0,54.0,-100.00,NE,37,2.0,5.0,70,-99.99,,,0.00,304.149994,,2013-06-17 15:43:00,
2013-06-17 08:52:00,64.0,54.0,-100.00,NE,37,2.0,5.0,70,-99.99,,,0.00,304.149994,,2013-06-17 15:52:00,
2013-06-17 09:00:00,65.0,52.0,-100.00,NNW,344,7.0,13.0,61,-99.99,,,0.00,390.850006,,2013-06-17 16:00:00,
2013-06-17 09:43:00,65.0,52.0,-100.00,NNW,344,7.0,13.0,61,-99.99,,,0.00,390.850006,,2013-06-17 16:43:00,
2013-06-17 09:53:00,65.0,52.0,-100.00,NNW,344,7.0,13.0,61,-99.99,,,0.00,390.850006,,2013-06-17 16:53:00,
2013-06-17 10:00:00,67.0,51.0,-100.00,NNW,329,6.0,12.0,57,-99.99,,,0.00,475.109985,,2013-06-17 17:00:00,
2013-06-17 10:43:00,67.0,51.0,-100.00,NNW,329,6.0,12.0,57,-99.99,,,0.00,475.109985,,2013-06-17 17:43:00,
2013-06-17 10:52:00,67.0,51.0,-100.00,NNW,329,6.0,12.0,57,-99.99,,,0.00,475.109985,,2013-06-17 17:52:00,
2013-06-17 11:00:00,71.0,48.0,-100.00,NNW,338,9.0,16.0,44,-99.99,,,0.00,822.020020,,2013-06-17 18:00:00,
2013-06-17 11:43:00,71.0,48.0,-100.00,NNW,338,9.0,16.0,44,-99.99,,,0.00,822.020020,,2013-06-17 18:43:00,
2013-06-17 11:53:00,71.0,48.0,-100.00,NNW,338,9.0,16.0,44,-99.99,,,0.00,822.020020,,2013-06-17 18:53:00,
2013-06-17 12:00:00,73.0,46.0,-100.00,NNW,331,10.0,19.0,37,-99.99,,,0.00,888.500000,,2013-06-17 19:00:00,
2013-06-17 12:43:00,73.0,46.0,-100.00,NNW,331,10.0,19.0,37,-99.99,,,0.00,888.500000,,2013-06-17 19:43:00,
2013-06-17 12:54:00,73.0,46.0,-100.00,NNW,331,10.0,19.0,37,-99.99,,,0.00,888.500000,,2013-06-17 19:54:00,
2013-06-17 13:00:00,75.0,49.0,-100.00,NW,321,9.0,18.0,39,-99.99,,,0.00,980.900024,,2013-06-17 20:00:00,
2013-06-17 13:43:00,75.0,49.0,-100.00,NW,321,9.0,18.0,39,-99.99,,,0.00,980.900024,,2013-06-17 20:43:00,
2013-06-17 13:52:00,75.0,49.0,-100.00,NW,321,9.0,18.0,39,-99.99,,,0.00,980.900024,,2013-06-17 20:52:00,
2013-06-17 14:00:00,76.0,49.0,-100.00,NW,306,9.0,18.0,38,-99.99,,,0.00,999.489990,,2013-06-17 21:00:00,
2013-06-17 14:43:00,76.0,49.0,-100.00,NW,306,9.0,18.0,38,-99.99,,,0.00,999.489990,,2013-06-17 21:43:00,
2013-06-17 14:52:00,76.0,49.0,-100.00,NW,306,9.0,18.0,38,-99.99,,,0.00,999.489990,,2013-06-17 21:52:00,
2013-06-17 15:00:00,77.0,49.0,-100.00,NW,314,9.0,19.0,37,-99.99,,,0.00,903.260010,,2013-06-17 22:00:00,
2013-06-17 15:43:00,77.0,49.0,-100.00,NW,314,9.0,19.0,37,-99.99,,,0.00,903.260010,,2013-06-17 22:43:00,
2013-06-17 15:53:00,77.0,49.0,-100.00,NW,314,9.0,19.0,37,-99.99,,,0.00,903.260010,,2013-06-17 22:53:00,
2013-06-17 16:00:00,77.0,47.0,-100.00,NW,304,9.0,19.0,34,-99.99,,,0.00,799.359985,,2013-06-17 23:00:00,
2013-06-17 16:42:00,77.0,47.0,-100.00,NW,304,9.0,19.0,34,-99.99,,,0.00,799.359985,,2013-06-17 23:42:00,
2013-06-17 16:53:00,77.0,47.0,-100.00,NW,304,9.0,19.0,34,-99.99,,,0.00,799.359985,,2013-06-17 23:53:00,
2013-06-17 17:00:00,76.0,48.0,-100.00,NW,311,7.0,16.0,37,-99.99,,,0.00,606.440002,,2013-06-18 00:00:00,
2013-06-17 17:43:00,76.0,48.0,-100.00,NW,311,7.0,16.0,37,-99.99,,,0.00,606.440002,,2013-06-18 00:43:00,
2013-06-17 17:52:00,76.0,48.0,-100.00,NW,311,7.0,16.0,37,-99.99,,,0.00,606.440002,,2013-06-18 00:52:00,
2013-06-17 18:00:00,73.0,47.0,-100.00,NW,310,7.0,17.0,39,-99.99,,,0.00,315.540009,,2013-06-18 01:00:00,
2013-06-17 18:44:00,73.0,47.0,-100.00,NW,310,7.0,17.0,39,-99.99,,,0.00,315.540009,,2013-06-18 01:44:00,
2013-06-17 18:53:00,73.0,47.0,-100.00,NW,310,7.0,17.0,39,-99.99,,,0.00,315.540009,,2013-06-18 01:53:00,
2013-06-17 19:00:00,71.0,47.0,-100.00,WNW,297,5.0,12.0,43,-99.99,,,0.00,67.410004,,2013-06-18 02:00:00,
2013-06-17 19:43:00,71.0,47.0,-100.00,WNW,297,5.0,12.0,43,-99.99,,,0.00,67.410004,,2013-06-18 02:43:00,
2013-06-17 19:53:00,71.0,47.0,-100.00,WNW,297,5.0,12.0,43,-99.99,,,0.00,67.410004,,2013-06-18 02:53:00,
2013-06-17 20:00:00,71.0,46.0,-100.00,NW,310,5.0,14.0,41,-99.99,,,0.00,49.040001,,2013-06-18 03:00:00,
2013-06-17 20:42:00,71.0,46.0,-100.00,NW,310,5.0,14.0,41,-99.99,,,0.00,49.040001,,2013-06-18 03:42:00,
2013-06-17 20:53:00,71.0,46.0,-100.00,NW,310,5.0,14.0,41,-99.99,,,0.00,49.040001,,2013-06-18 03:53:00,
2013-06-17 21:00:00,69.0,47.0,-100.00,NW,305,4.0,11.0,45,-99.99,,,0.00,10.690000,,2013-06-18 04:00:00,
2013-06-17 21:43:00,69.0,47.0,-100.00,NW,305,4.0,11.0,45,-99.99,,,0.00,10.690000,,2013-06-18 04:43:00,
2013-06-17 21:53:00,69.0,47.0,-100.00,NW,305,4.0,11.0,45,-99.99,,,0.00,10.690000,,2013-06-18 04:53:00,
2013-06-17 22:00:00,67.0,49.0,-100.00,WSW,245,3.0,9.0,51,-99.99,,,0.00,0.120000,,2013-06-18 05:00:00,
2013-06-17 22:43:00,67.0,49.0,-100.00,WSW,245,3.0,9.0,51,-99.99,,,0.00,0.120000,,2013-06-18 05:43:00,
2013-06-17 22:53:00,67.0,49.0,-100.00,WSW,245,3.0,9.0,51,-99.99,,,0.00,0.120000,,2013-06-18 05:53:00,
2013-06-17 23:00:00,64.0,48.0,-100.00,West,280,2.0,5.0,56,-99.99,,,0.00,0.120000,,2013-06-18 06:00:00,
2013-06-17 23:43:00,64.0,48.0,-100.00,West,280,2.0,5.0,56,-99.99,,,0.00,0.120000,,2013-06-18 06:43:00,
2013-06-17 23:53:00,64.0,48.0,-100.00,West,280,2.0,5.0,56,-99.99,,,0.00,0.120000,,2013-06-18 06:53:00,